createdAt,value
2018-03-31T00:01:12.561Z,2.95
2018-03-31T00:03:38.423Z,2.98
2018-03-31T00:06:04.157Z,2.90
2018-03-31T00:08:29.878Z,2.89
2018-03-31T00:10:55.966Z,2.81
2018-03-31T00:13:21.754Z,2.93
2018-03-31T00:15:47.598Z,2.83
2018-03-31T00:18:13.424Z,2.75
2018-03-31T00:20:39.152Z,2.75
2018-03-31T00:23:04.872Z,2.73
2018-03-31T00:25:30.684Z,2.68
2018-03-31T00:27:56.497Z,2.59
2018-03-31T00:30:22.229Z,2.66
2018-03-31T00:32:47.997Z,2.61
2018-03-31T00:35:13.806Z,2.65
2018-03-31T00:37:39.568Z,2.58
2018-03-31T00:40:05.416Z,2.53
2018-03-31T00:42:31.146Z,2.48
2018-03-31T00:44:56.860Z,2.49
2018-03-31T00:47:22.621Z,2.42
2018-03-31T00:49:48.404Z,2.47
2018-03-31T00:52:14.233Z,2.47
2018-03-31T00:54:40.010Z,2.47
2018-03-31T00:57:05.742Z,2.39
2018-03-31T00:59:31.457Z,2.45
2018-03-31T01:01:57.252Z,2.36
2018-03-31T01:04:23.128Z,2.38
2018-03-31T01:06:48.858Z,2.36
2018-03-31T01:09:14.628Z,2.29
2018-03-31T01:11:40.346Z,2.25
2018-03-31T01:14:06.116Z,2.32
2018-03-31T01:16:31.974Z,2.22
2018-03-31T01:18:59.150Z,2.22
2018-03-31T01:21:24.921Z,2.17
2018-03-31T01:23:50.675Z,2.15
2018-03-31T01:26:16.497Z,2.11
2018-03-31T01:28:42.315Z,2.16
2018-03-31T01:31:08.088Z,2.08
2018-03-31T01:33:33.820Z,2.06
2018-03-31T01:35:59.533Z,2.10
2018-03-31T01:38:25.358Z,2.05
2018-03-31T01:40:51.152Z,2.07
2018-03-31T01:43:16.880Z,2.12
2018-03-31T01:45:42.637Z,2.04
2018-03-31T01:48:08.370Z,1.99
2018-03-31T01:50:34.162Z,1.96
2018-03-31T01:53:00.022Z,1.98
2018-03-31T01:55:25.729Z,1.98
2018-03-31T01:57:51.454Z,1.93
2018-03-31T02:00:17.212Z,1.99
2018-03-31T02:02:43.015Z,1.99
2018-03-31T02:05:08.838Z,1.93
2018-03-31T02:07:34.840Z,1.96
2018-03-31T02:10:00.565Z,2.01
2018-03-31T02:12:26.290Z,1.89
2018-03-31T02:14:52.077Z,1.92
2018-03-31T02:17:17.882Z,1.82
2018-03-31T02:19:43.691Z,1.78
2018-03-31T02:22:09.464Z,1.80
2018-03-31T02:24:35.196Z,1.77
2018-03-31T02:27:00.933Z,1.68
2018-03-31T02:29:26.729Z,1.66
2018-03-31T02:31:52.450Z,1.65
2018-03-31T02:34:18.175Z,1.60
2018-03-31T02:36:43.973Z,1.60
2018-03-31T02:39:09.695Z,1.62
2018-03-31T02:41:35.422Z,1.52
2018-03-31T02:44:01.555Z,1.49
2018-03-31T02:46:27.308Z,1.48
2018-03-31T02:48:53.049Z,1.48
2018-03-31T02:51:18.816Z,1.45
2018-03-31T02:53:44.534Z,1.51
2018-03-31T02:56:10.262Z,1.45
2018-03-31T02:58:36.030Z,1.45
2018-03-31T03:01:01.746Z,1.40
2018-03-31T03:03:27.472Z,1.38
2018-03-31T03:05:53.341Z,1.31
2018-03-31T03:08:19.074Z,1.40
2018-03-31T03:10:44.787Z,1.37
2018-03-31T03:13:10.565Z,1.41
2018-03-31T03:15:36.272Z,1.33
2018-03-31T03:18:02.106Z,1.32
2018-03-31T03:20:27.878Z,1.31
2018-03-31T03:22:53.601Z,1.31
2018-03-31T03:25:19.321Z,1.34
2018-03-31T03:27:45.084Z,1.31
2018-03-31T03:30:10.906Z,1.33
2018-03-31T03:32:36.632Z,1.29
2018-03-31T03:35:02.398Z,1.32
2018-03-31T03:37:28.122Z,1.39
2018-03-31T03:39:53.844Z,1.43
2018-03-31T03:42:19.703Z,1.42
2018-03-31T03:44:45.431Z,1.48
2018-03-31T03:47:11.147Z,1.61
2018-03-31T03:49:36.930Z,1.61
2018-03-31T03:52:02.674Z,1.70
2018-03-31T03:54:28.504Z,1.70
2018-03-31T03:56:54.323Z,1.78
2018-03-31T03:59:20.050Z,1.76
2018-03-31T04:01:45.773Z,1.82
2018-03-31T04:04:11.546Z,1.77
2018-03-31T04:06:37.357Z,1.79
2018-03-31T04:09:03.089Z,1.82
2018-03-31T04:11:28.856Z,1.84
2018-03-31T04:13:54.572Z,1.88
2018-03-31T04:16:20.364Z,1.86
2018-03-31T04:18:46.249Z,1.91
2018-03-31T04:21:11.995Z,1.93
2018-03-31T04:23:37.708Z,1.94
2018-03-31T04:26:03.468Z,1.94
2018-03-31T04:28:29.192Z,1.92
2018-03-31T04:30:55.029Z,1.89
2018-03-31T04:33:20.797Z,1.94
2018-03-31T04:35:46.611Z,1.93
2018-03-31T04:38:12.344Z,1.97
2018-03-31T04:40:38.088Z,1.95
2018-03-31T04:43:03.912Z,1.98
2018-03-31T04:45:29.628Z,2.02
2018-03-31T04:47:55.400Z,1.97
2018-03-31T04:50:21.129Z,2.01
2018-03-31T04:52:46.920Z,2.08
2018-03-31T04:55:12.782Z,2.02
2018-03-31T04:57:38.533Z,2.05
2018-03-31T05:00:04.246Z,2.09
2018-03-31T05:02:30.029Z,2.07
2018-03-31T05:04:55.779Z,2.07
2018-03-31T05:07:21.593Z,2.10
2018-03-31T05:09:47.352Z,2.11
2018-03-31T05:12:13.085Z,2.13
2018-03-31T05:14:38.807Z,2.16
2018-03-31T05:17:04.569Z,2.23
2018-03-31T05:19:30.384Z,2.25
2018-03-31T05:21:56.152Z,2.19
2018-03-31T05:24:21.920Z,2.22
2018-03-31T05:26:47.636Z,2.22
2018-03-31T05:29:13.339Z,2.26
2018-03-31T05:31:39.209Z,2.26
2018-03-31T05:34:04.936Z,2.28
2018-03-31T05:36:30.669Z,2.23
2018-03-31T05:38:56.432Z,2.33
2018-03-31T05:41:22.161Z,2.32
2018-03-31T05:43:47.956Z,2.40
2018-03-31T05:46:13.729Z,2.52
2018-03-31T05:48:39.457Z,2.63
2018-03-31T05:51:05.186Z,2.62
2018-03-31T05:53:30.965Z,2.66
2018-03-31T05:55:56.809Z,2.71
2018-03-31T05:58:22.597Z,2.68
2018-03-31T06:00:48.348Z,2.76
2018-03-31T06:03:14.103Z,2.81
2018-03-31T06:05:39.893Z,2.81
2018-03-31T06:08:05.857Z,2.94
2018-03-31T06:10:31.581Z,2.78
2018-03-31T06:12:57.382Z,2.78
2018-03-31T06:15:23.168Z,2.96
2018-03-31T06:17:48.938Z,2.95
2018-03-31T06:20:14.765Z,2.90
2018-03-31T06:22:40.534Z,2.91
2018-03-31T06:25:06.258Z,2.80
2018-03-31T06:27:31.981Z,2.86
2018-03-31T06:29:57.830Z,2.88
2018-03-31T06:32:23.838Z,2.88
2018-03-31T06:34:49.561Z,2.84
2018-03-31T06:37:15.326Z,2.97
2018-03-31T06:39:41.054Z,2.70
2018-03-31T06:42:06.773Z,2.69
2018-03-31T06:44:32.821Z,2.61
2018-03-31T06:46:58.537Z,2.53
2018-03-31T06:49:24.285Z,2.59
2018-03-31T06:51:50.029Z,2.57
2018-03-31T06:54:15.739Z,2.55
2018-03-31T06:56:41.452Z,2.54
2018-03-31T06:59:07.225Z,2.61
2018-03-31T07:01:32.959Z,2.64
2018-03-31T07:03:58.698Z,2.69
2018-03-31T07:06:24.524Z,2.68
2018-03-31T07:08:50.245Z,2.66
2018-03-31T07:11:15.966Z,2.75
2018-03-31T07:13:41.736Z,2.82
2018-03-31T07:16:08.583Z,2.81
2018-03-31T07:18:34.445Z,2.93
2018-03-31T07:21:00.192Z,2.98
2018-03-31T07:23:25.913Z,3.01
2018-03-31T07:25:51.648Z,3.09
2018-03-31T07:28:17.437Z,3.08
2018-03-31T07:30:43.147Z,3.05
2018-03-31T07:33:08.963Z,3.10
2018-03-31T07:35:34.825Z,3.11
2018-03-31T07:38:00.606Z,3.13
2018-03-31T07:40:26.348Z,3.01
2018-03-31T07:42:52.097Z,3.07
2018-03-31T07:45:17.862Z,3.07
2018-03-31T07:47:43.585Z,3.10
2018-03-31T07:50:09.344Z,3.23
2018-03-31T07:52:35.078Z,3.32
2018-03-31T07:55:00.821Z,3.34
2018-03-31T07:57:26.621Z,3.43
2018-03-31T07:59:52.328Z,3.45
2018-03-31T08:02:18.065Z,3.53
2018-03-31T08:04:43.861Z,3.62
2018-03-31T08:07:09.577Z,3.64
2018-03-31T08:09:35.293Z,3.68
2018-03-31T08:12:01.060Z,3.79
2018-03-31T08:14:26.852Z,3.87
2018-03-31T08:16:52.568Z,3.95
2018-03-31T08:19:18.328Z,3.97
2018-03-31T08:21:44.057Z,4.17
2018-03-31T08:24:09.794Z,4.34
2018-03-31T08:26:35.548Z,4.46
2018-03-31T08:29:01.265Z,4.47
2018-03-31T08:31:26.977Z,4.38
2018-03-31T08:33:53.090Z,4.38
2018-03-31T08:36:18.892Z,4.41
2018-03-31T08:38:44.626Z,4.19
2018-03-31T08:41:10.397Z,4.10
2018-03-31T08:43:36.228Z,3.98
2018-03-31T08:46:02.029Z,3.98
2018-03-31T08:48:27.805Z,3.81
2018-03-31T08:50:53.528Z,3.79
2018-03-31T08:53:19.245Z,3.91
2018-03-31T08:55:45.013Z,3.97
2018-03-31T08:58:10.770Z,4.19
2018-03-31T09:00:36.613Z,4.30
2018-03-31T09:03:02.378Z,4.39
2018-03-31T09:05:28.102Z,4.24
2018-03-31T09:07:53.833Z,4.31
2018-03-31T09:10:19.593Z,4.56
2018-03-31T09:12:45.361Z,4.55
2018-03-31T09:15:11.085Z,4.45
2018-03-31T09:17:36.854Z,4.63
2018-03-31T09:20:02.613Z,4.55
2018-03-31T09:22:28.382Z,4.33
2018-03-31T09:24:54.160Z,4.27
2018-03-31T09:27:19.902Z,4.35
2018-03-31T09:29:45.665Z,4.46
2018-03-31T09:32:11.590Z,4.69
2018-03-31T09:34:37.318Z,4.86
2018-03-31T09:37:03.037Z,4.54
2018-03-31T09:39:28.819Z,4.52
2018-03-31T09:41:54.556Z,4.71
2018-03-31T09:44:20.645Z,4.46
2018-03-31T09:46:46.521Z,4.47
2018-03-31T09:49:12.217Z,4.42
2018-03-31T09:51:39.213Z,4.34
2018-03-31T09:54:05.089Z,4.25
2018-03-31T09:56:30.900Z,4.19
2018-03-31T09:58:56.604Z,4.28
2018-03-31T10:01:22.368Z,4.17
2018-03-31T10:03:48.072Z,4.23
2018-03-31T10:06:13.797Z,4.30
2018-03-31T10:08:39.548Z,4.44
2018-03-31T10:11:05.255Z,4.73
2018-03-31T10:13:31.002Z,4.88
2018-03-31T10:15:56.768Z,5.32
2018-03-31T10:18:22.472Z,5.32
2018-03-31T10:20:48.188Z,5.84
2018-03-31T10:23:13.937Z,6.15
2018-03-31T10:25:39.740Z,6.37
2018-03-31T10:28:05.469Z,6.11
2018-03-31T10:30:31.242Z,6.06
2018-03-31T10:32:56.976Z,5.82
2018-03-31T10:35:22.814Z,5.51
2018-03-31T10:37:48.565Z,5.24
2018-03-31T10:40:14.328Z,5.05
2018-03-31T10:42:40.103Z,4.86
2018-03-31T10:45:05.910Z,5.02
2018-03-31T10:47:31.802Z,5.22
2018-03-31T10:49:57.530Z,4.96
2018-03-31T10:52:23.296Z,4.90
2018-03-31T10:54:49.019Z,5.08
2018-03-31T10:57:14.750Z,5.06
2018-03-31T10:59:40.597Z,5.27
2018-03-31T11:02:06.311Z,5.30
2018-03-31T11:04:32.025Z,5.30
2018-03-31T11:06:57.796Z,5.10
2018-03-31T11:09:23.528Z,5.17
2018-03-31T11:11:49.337Z,5.17
2018-03-31T11:14:15.110Z,5.10
2018-03-31T11:16:40.828Z,5.33
2018-03-31T11:19:06.550Z,5.47
2018-03-31T11:21:32.317Z,5.33
2018-03-31T11:23:58.660Z,5.17
2018-03-31T11:26:24.398Z,5.41
2018-03-31T11:28:50.148Z,5.55
2018-03-31T11:31:15.931Z,5.67
2018-03-31T11:33:41.635Z,5.65
2018-03-31T11:36:07.504Z,5.60
2018-03-31T11:38:33.214Z,5.68
2018-03-31T11:40:58.958Z,5.84
2018-03-31T11:43:24.835Z,5.83
2018-03-31T11:45:50.573Z,6.03
2018-03-31T11:48:16.393Z,5.87
2018-03-31T11:50:42.430Z,6.00
2018-03-31T11:53:08.156Z,5.94
2018-03-31T11:55:33.865Z,5.92
2018-03-31T11:57:59.624Z,5.98
2018-03-31T12:00:25.448Z,6.16
2018-03-31T12:02:51.181Z,6.19
2018-03-31T12:05:16.947Z,6.14
2018-03-31T12:07:42.665Z,6.26
2018-03-31T12:10:08.552Z,6.29
2018-03-31T12:12:34.401Z,6.30
2018-03-31T12:15:00.132Z,6.46
2018-03-31T12:17:25.869Z,6.45
2018-03-31T12:19:51.631Z,6.25
2018-03-31T12:22:17.340Z,6.47
2018-03-31T12:24:43.167Z,6.46
2018-03-31T12:27:08.936Z,6.51
2018-03-31T12:29:34.673Z,6.61
2018-03-31T12:32:00.380Z,6.59
2018-03-31T12:34:26.145Z,6.53
2018-03-31T12:36:51.965Z,6.64
2018-03-31T12:39:17.681Z,6.72
2018-03-31T12:41:43.441Z,6.64
2018-03-31T12:44:09.161Z,6.81
2018-03-31T12:46:34.873Z,6.82
2018-03-31T12:49:00.745Z,6.70
2018-03-31T12:51:26.453Z,6.77
2018-03-31T12:53:52.228Z,6.69
2018-03-31T12:56:18.246Z,6.39
2018-03-31T12:58:43.969Z,6.18
2018-03-31T13:01:09.768Z,6.18
2018-03-31T13:03:35.697Z,6.07
2018-03-31T13:06:01.410Z,6.17
2018-03-31T13:08:27.136Z,6.10
2018-03-31T13:10:52.909Z,6.03
2018-03-31T13:13:18.745Z,6.01
2018-03-31T13:15:44.470Z,6.07
2018-03-31T13:18:10.264Z,6.13
2018-03-31T13:20:35.976Z,6.06
2018-03-31T13:23:01.726Z,5.98
2018-03-31T13:25:27.568Z,5.96
2018-03-31T13:27:53.289Z,6.01
2018-03-31T13:30:19.010Z,5.94
2018-03-31T13:32:44.772Z,5.91
2018-03-31T13:35:10.492Z,5.89
2018-03-31T13:37:36.308Z,5.96
2018-03-31T13:40:02.116Z,5.99
2018-03-31T13:42:27.848Z,5.98
2018-03-31T13:44:53.565Z,5.89
2018-03-31T13:47:19.321Z,5.88
2018-03-31T13:49:45.131Z,5.84
2018-03-31T13:52:10.844Z,5.79
2018-03-31T13:54:36.704Z,5.86
2018-03-31T13:57:02.426Z,5.88
2018-03-31T13:59:28.133Z,5.88
2018-03-31T14:01:53.996Z,5.89
2018-03-31T14:04:19.709Z,5.84
2018-03-31T14:06:45.430Z,5.79
2018-03-31T14:09:11.188Z,5.80
2018-03-31T14:11:36.938Z,5.84
2018-03-31T14:14:02.744Z,5.89
2018-03-31T14:16:28.508Z,5.96
2018-03-31T14:18:54.217Z,5.94
2018-03-31T14:21:19.942Z,6.01
2018-03-31T14:23:45.696Z,5.98
2018-03-31T14:26:11.501Z,5.94
2018-03-31T14:28:37.295Z,5.97
2018-03-31T14:31:03.044Z,5.95
2018-03-31T14:33:28.772Z,5.95
2018-03-31T14:35:54.512Z,5.96
2018-03-31T14:38:20.377Z,5.96
2018-03-31T14:40:46.084Z,5.97
2018-03-31T14:43:11.806Z,5.95
2018-03-31T14:45:37.577Z,5.91
2018-03-31T14:48:03.397Z,5.86
2018-03-31T14:50:29.227Z,5.88
2018-03-31T14:52:54.989Z,5.88
2018-03-31T14:55:20.795Z,5.91
2018-03-31T14:57:47.226Z,5.90
2018-03-31T15:00:13.092Z,5.87
2018-03-31T15:02:38.897Z,5.90
2018-03-31T15:05:04.612Z,5.90
2018-03-31T15:07:30.494Z,5.87
2018-03-31T15:09:56.467Z,5.88
2018-03-31T15:12:22.246Z,5.88
2018-03-31T15:14:48.101Z,5.86
2018-03-31T15:17:13.857Z,5.82
2018-03-31T15:19:39.552Z,5.87
2018-03-31T15:22:05.308Z,5.90
2018-03-31T15:24:31.044Z,5.88
2018-03-31T15:26:56.770Z,5.88
2018-03-31T15:29:22.524Z,5.80
2018-03-31T15:31:48.245Z,5.81
2018-03-31T15:34:14.107Z,5.84
2018-03-31T15:36:40.043Z,5.84
2018-03-31T15:39:05.776Z,5.83
2018-03-31T15:41:32.356Z,5.82
2018-03-31T15:43:58.127Z,5.79
2018-03-31T15:46:23.998Z,5.84
2018-03-31T15:48:49.869Z,5.84
2018-03-31T15:51:15.630Z,5.81
2018-03-31T15:53:41.355Z,5.72
2018-03-31T15:56:07.236Z,5.77
2018-03-31T15:58:33.007Z,5.75
2018-03-31T16:00:58.712Z,5.74
2018-03-31T16:03:24.573Z,5.77
2018-03-31T16:05:50.357Z,5.71
2018-03-31T16:08:16.088Z,5.70
2018-03-31T16:10:41.809Z,5.71
2018-03-31T16:13:07.566Z,5.69
2018-03-31T16:15:33.300Z,5.65
2018-03-31T16:17:59.022Z,5.63
2018-03-31T16:20:24.794Z,5.58
2018-03-31T16:22:50.517Z,5.56
2018-03-31T16:25:16.258Z,5.62
2018-03-31T16:27:42.463Z,5.56
2018-03-31T16:30:08.214Z,5.54
2018-03-31T16:32:33.982Z,5.52
2018-03-31T16:34:59.818Z,5.51
2018-03-31T16:37:25.715Z,5.57
2018-03-31T16:39:51.505Z,5.48
2018-03-31T16:42:17.569Z,5.49
2018-03-31T16:44:43.448Z,5.47
2018-03-31T16:47:09.241Z,5.53
2018-03-31T16:49:35.042Z,5.48
2018-03-31T16:52:01.231Z,5.53
2018-03-31T16:54:26.965Z,5.46
2018-03-31T16:56:52.792Z,5.50
2018-03-31T16:59:18.517Z,5.47
2018-03-31T17:01:44.726Z,5.51
2018-03-31T17:04:10.615Z,5.50
2018-03-31T17:06:36.389Z,5.44
2018-03-31T17:09:02.544Z,5.44
2018-03-31T17:11:28.616Z,5.41
2018-03-31T17:13:54.470Z,5.41
2018-03-31T17:16:20.261Z,5.28
2018-03-31T17:18:46.016Z,5.34
2018-03-31T17:21:11.732Z,5.33
2018-03-31T17:23:37.443Z,5.30
2018-03-31T17:26:03.212Z,5.39
2018-03-31T17:28:28.917Z,5.37
2018-03-31T17:30:54.663Z,5.28
2018-03-31T17:33:20.432Z,5.29
2018-03-31T17:35:46.152Z,5.36
2018-03-31T17:38:11.870Z,5.36
2018-03-31T17:40:37.706Z,5.37
2018-03-31T17:43:03.521Z,5.26
2018-03-31T17:45:29.240Z,5.29
2018-03-31T17:47:55.017Z,5.38
2018-03-31T17:50:20.797Z,5.32
2018-03-31T17:52:46.517Z,5.40
2018-03-31T17:55:12.270Z,5.32
2018-03-31T17:57:38.001Z,5.28
2018-03-31T18:00:03.738Z,5.33
2018-03-31T18:02:29.499Z,5.34
2018-03-31T18:04:55.217Z,5.29
2018-03-31T18:07:20.996Z,5.18
2018-03-31T18:09:46.771Z,5.20
2018-03-31T18:12:12.520Z,5.19
2018-03-31T18:14:38.293Z,5.13
2018-03-31T18:17:04.315Z,5.12
2018-03-31T18:19:30.144Z,5.22
2018-03-31T18:21:55.857Z,5.20
2018-03-31T18:24:21.606Z,5.18
2018-03-31T18:26:47.321Z,5.07
2018-03-31T18:29:13.140Z,5.11
2018-03-31T18:31:38.949Z,5.06
2018-03-31T18:34:04.814Z,5.07
2018-03-31T18:36:30.557Z,5.06
2018-03-31T18:38:56.309Z,5.02
2018-03-31T18:41:22.008Z,5.08
2018-03-31T18:43:47.842Z,5.07
2018-03-31T18:46:13.951Z,5.07
2018-03-31T18:48:39.689Z,4.97
2018-03-31T18:51:05.743Z,5.07
2018-03-31T18:53:31.532Z,5.01
2018-03-31T18:55:57.267Z,5.00
2018-03-31T18:58:23.275Z,4.98
2018-03-31T19:00:49.060Z,4.99
2018-03-31T19:03:14.769Z,4.96
2018-03-31T19:05:40.495Z,4.92
2018-03-31T19:08:06.276Z,4.92
2018-03-31T19:10:32.097Z,4.89
2018-03-31T19:12:57.914Z,4.86
2018-03-31T19:15:23.685Z,4.87
2018-03-31T19:17:49.406Z,4.79
2018-03-31T19:20:16.968Z,4.74
2018-03-31T19:22:42.733Z,4.70
2018-03-31T19:25:14.545Z,4.77
2018-03-31T19:27:40.269Z,4.77
2018-03-31T19:30:06.028Z,4.75
2018-03-31T19:32:31.733Z,4.75
2018-03-31T19:34:57.449Z,4.64
2018-03-31T19:37:23.284Z,4.70
2018-03-31T19:39:50.043Z,4.67
2018-03-31T19:42:15.754Z,4.65
2018-03-31T19:44:41.493Z,4.62
2018-03-31T19:47:07.435Z,4.59
2018-03-31T19:49:33.206Z,4.54
2018-03-31T19:51:58.953Z,4.56
2018-03-31T19:54:24.660Z,4.57
2018-03-31T19:56:50.374Z,4.47
2018-03-31T19:59:16.195Z,4.49
2018-03-31T20:01:41.945Z,4.57
2018-03-31T20:04:07.761Z,4.50
2018-03-31T20:06:33.506Z,4.50
2018-03-31T20:08:59.256Z,4.50
2018-03-31T20:11:24.968Z,4.50
2018-03-31T20:13:51.022Z,4.47
2018-03-31T20:16:16.779Z,4.41
2018-03-31T20:18:42.497Z,4.39
2018-03-31T20:21:08.254Z,4.38
2018-03-31T20:23:33.967Z,4.34
2018-03-31T20:26:00.045Z,4.37
2018-03-31T20:28:25.816Z,4.33
2018-03-31T20:30:51.534Z,4.33
2018-03-31T20:33:17.274Z,4.42
2018-03-31T20:35:43.774Z,4.33
2018-03-31T20:38:09.499Z,4.31
2018-03-31T20:40:35.225Z,4.21
2018-03-31T20:43:00.972Z,4.07
2018-03-31T20:45:26.693Z,4.10
2018-03-31T20:47:52.579Z,4.07
2018-03-31T20:50:18.359Z,3.98
2018-03-31T20:52:44.197Z,3.91
2018-03-31T20:55:09.963Z,3.88
2018-03-31T20:57:36.084Z,3.88
2018-03-31T21:00:01.818Z,3.83
2018-03-31T21:02:27.809Z,3.87
2018-03-31T21:04:53.933Z,3.82
2018-03-31T21:07:19.681Z,3.84
2018-03-31T21:09:45.546Z,3.71
2018-03-31T21:12:11.395Z,3.63
2018-03-31T21:14:37.118Z,3.66
2018-03-31T21:17:02.854Z,3.62
2018-03-31T21:19:28.640Z,3.58
2018-03-31T21:21:54.576Z,3.58
2018-03-31T21:24:20.301Z,3.51
2018-03-31T21:26:46.097Z,3.50
2018-03-31T21:29:11.808Z,3.53
2018-03-31T21:31:37.524Z,3.53
2018-03-31T21:34:03.345Z,3.45
2018-03-31T21:36:29.084Z,3.46
2018-03-31T21:38:54.807Z,3.36
2018-03-31T21:41:20.555Z,3.23
2018-03-31T21:43:46.360Z,3.27
2018-03-31T21:46:12.065Z,3.23
2018-03-31T21:48:37.812Z,3.20
2018-03-31T21:51:03.553Z,3.22
2018-03-31T21:53:29.283Z,3.14
2018-03-31T21:55:55.023Z,3.08
2018-03-31T21:58:20.746Z,3.10
2018-03-31T22:00:46.981Z,3.06
2018-03-31T22:03:12.779Z,2.96
2018-03-31T22:05:38.521Z,2.92
2018-03-31T22:08:04.237Z,2.86
2018-03-31T22:10:30.086Z,2.87
2018-03-31T22:13:01.994Z,2.71
2018-03-31T22:15:33.772Z,2.75
2018-03-31T22:17:59.495Z,2.73
2018-03-31T22:20:25.209Z,2.69
2018-03-31T22:22:50.954Z,2.72
2018-03-31T22:25:16.687Z,2.72
2018-03-31T22:27:42.402Z,2.76
2018-03-31T22:30:08.140Z,2.74
2018-03-31T22:32:33.865Z,2.82
2018-03-31T22:34:59.591Z,2.73
2018-03-31T22:37:25.561Z,2.65
2018-03-31T22:39:51.277Z,2.65
2018-03-31T22:42:17.001Z,2.60
2018-03-31T22:44:42.752Z,2.55
2018-03-31T22:47:08.470Z,2.63
2018-03-31T22:49:34.204Z,2.60
2018-03-31T22:51:59.972Z,2.59
2018-03-31T22:54:25.713Z,2.54
2018-03-31T22:56:51.438Z,2.57
2018-03-31T22:59:17.185Z,2.55
2018-03-31T23:01:42.900Z,2.52
2018-03-31T23:04:08.609Z,2.45
2018-03-31T23:06:34.347Z,2.46
2018-03-31T23:09:00.057Z,2.41
2018-03-31T23:11:26.705Z,2.34
2018-03-31T23:13:52.459Z,2.37
2018-03-31T23:16:18.198Z,2.40
2018-03-31T23:18:43.944Z,2.34
2018-03-31T23:21:09.692Z,2.33
2018-03-31T23:23:35.402Z,2.32
2018-03-31T23:26:01.134Z,2.35
2018-03-31T23:28:26.907Z,2.35
2018-03-31T23:30:52.634Z,2.29
2018-03-31T23:33:18.357Z,2.24
2018-03-31T23:35:44.112Z,2.25
2018-03-31T23:38:09.812Z,2.20
2018-03-31T23:40:35.522Z,2.16
2018-03-31T23:43:01.289Z,2.17
2018-03-31T23:45:27.013Z,2.14
2018-03-31T23:47:52.746Z,2.15
2018-03-31T23:50:18.495Z,2.22
2018-03-31T23:52:44.209Z,2.24
2018-03-31T23:55:09.937Z,2.25
2018-03-31T23:57:35.758Z,2.19
